Odebolt, IA

8:28 AM CDT on April 25, 2015 (GMT -0500)
Denison Municipal | | Change Station
CLOSE
Current Station
Airport
Location: Denison,
Elevation: 1273 ft
Nearby Weather Stations

Elev 1273 ft 41.98 °N, 95.38 °W | Updated 13 minutes ago

Rain
Rain
45 °F
Feels Like 38 °F
N
14
Wind Variable Wind from ENE
Gusts 23 mph

Today
High -- | Low -- °F
--% Chance of Precip.
Yesterday
High -- | Low -- °F
Precip. -- in
6:25 AM 8:13 PM
Waxing Crescent, 46% visible
Pressure 29.58 in
Visibility 2.0 miles
Clouds Mostly Cloudy 700 ft
Overcast 1000 ft
Windchill 38 °F
Dew Point 45 °F
Humidity 100%
Rainfall 0.09 in
Snow Depth Not available.
UV 0 out of 12
Pollen 8.80 out of 12
Air Quality Not available.
Flu Activity Local Activity
METAR KDNS 251315Z AUTO 07012G20KT 2SM -RA BKN007 OVC010 07/07 A2958 RMK AO2

More Conditions Fewer Conditions

Pressure 29.58 in
Visibility 2.0 miles
Clouds Mostly Cloudy 700 ft
Overcast 1000 ft
Windchill 38 °F
Dew Point 45 °F
Humidity 100%
Rainfall 0.09 in
Snow Depth Not available.
UV 0 out of 12
Pollen 8.80 out of 12
Air Quality Not available.
Flu Activity Local Activity
METAR KDNS 251315Z AUTO 07012G20KT 2SM -RA BKN007 OVC010 07/07 A2958 RMK AO2

More Conditions Fewer Conditions

10-Day Weather Forecast

Almanac

Astronomy

Apr. 25, 2015 Rise Set
Actual Time
Civil Twilight
Nautical Twilight
Astronomical Twilight
Moon
Length of Visible Light
Length of Day
Tomorrow will be .
, % of the Moon is Illuminated

Today's Extremes

State Highs State Lows

Community

WunderPhotos

Upload Photos

1,816,663 photos uploaded!

WunderBlogs® & News

Nearby

Air Quality

  Air Quality AQ Index Pollutant
Not available.

Snow Depth

Station Depth Elevation

Earthquake Activity

City Distance Mag. Time & Date
Minimum magnitude displayed is 2.5.

Coastal Water Temperatures

Place Temperature

Stations

Nearby Weather Stations

Station Location Temp. Windchill Dew Point Humidity Wind Precip. Elev Updated Type